Terminal Aerodrome Forecast
Issued by NWS

Home | Current Version | Previous Version | Text Only | Print | Product List | Glossary On
Versions: 1 2 3 4 5 6 7 8 9 10 11 12 13 14 15 16 17 18 19 20 21
618
FTUS43 KILX 302327
TAFBMI
TAF
KBMI 302327Z 0100/0124 02011KT P6SM VCSH SCT007 OVC025
      TEMPO 0100/0103 4SM -RA BR BKN007 OVC015
     FM010300 02007KT 6SM BR VCSH SCT006 OVC012
     FM010500 01005KT 3SM -DZ BR BKN003 OVC008
     FM010900 36006KT 1SM -DZ BR OVC003
     FM011600 32005KT 4SM BR VCSH BKN006 OVC012=

USA.gov is the U.S. government's official web portal to all federal, state and local government web resources and services.